createdAt,value
2018-03-14T00:02:12.766Z,85.60
2018-03-14T00:04:40.547Z,85.70
2018-03-14T00:07:07.880Z,85.50
2018-03-14T00:09:35.604Z,85.50
2018-03-14T00:12:03.028Z,85.50
2018-03-14T00:14:30.351Z,85.70
2018-03-14T00:16:57.674Z,85.30
2018-03-14T00:19:25.062Z,85.30
2018-03-14T00:21:52.370Z,85.40
2018-03-14T00:24:23.311Z,85.50
2018-03-14T00:26:50.703Z,85.30
2018-03-14T00:29:18.049Z,85.40
2018-03-14T00:31:45.402Z,85.50
2018-03-14T00:34:12.810Z,85.40
2018-03-14T00:36:40.114Z,85.20
2018-03-14T00:39:07.447Z,85.40
2018-03-14T00:41:34.827Z,85.40
2018-03-14T00:44:02.139Z,85.40
2018-03-14T00:46:29.445Z,85.40
2018-03-14T00:48:57.219Z,85.70
2018-03-14T00:51:24.947Z,85.50
2018-03-14T00:53:52.294Z,85.30
2018-03-14T00:56:19.636Z,85.50
2018-03-14T00:58:47.110Z,85.50
2018-03-14T01:01:14.450Z,85.20
2018-03-14T01:03:47.652Z,85.40
2018-03-14T01:06:14.969Z,85.20
2018-03-14T01:08:42.325Z,85.30
2018-03-14T01:11:09.656Z,85.30
2018-03-14T01:13:37.415Z,85.30
2018-03-14T01:16:05.227Z,85.20
2018-03-14T01:18:32.599Z,85.30
2018-03-14T01:20:59.915Z,85.30
2018-03-14T01:23:27.287Z,85.10
2018-03-14T01:25:54.768Z,85.30
2018-03-14T01:28:22.197Z,85.20
2018-03-14T01:30:49.551Z,85.30
2018-03-14T01:33:16.933Z,85.30
2018-03-14T01:35:44.234Z,85.10
2018-03-14T01:38:17.209Z,85.20
2018-03-14T01:40:44.571Z,85.10
2018-03-14T01:43:12.251Z,85.40
2018-03-14T01:45:39.951Z,85.40
2018-03-14T01:48:07.234Z,85.30
2018-03-14T01:50:34.532Z,85.30
2018-03-14T01:53:14.133Z,84.80
2018-03-14T01:55:41.442Z,85.10
2018-03-14T01:58:08.738Z,85.00
2018-03-14T02:00:36.106Z,85.20
2018-03-14T02:03:03.383Z,85.20
2018-03-14T02:05:31.095Z,85.40
2018-03-14T02:07:58.396Z,85.50
2018-03-14T02:10:26.124Z,85.30
2018-03-14T02:12:53.433Z,85.60
2018-03-14T02:15:20.741Z,85.60
2018-03-14T02:17:48.056Z,85.60
2018-03-14T02:20:15.395Z,85.80
2018-03-14T02:22:42.676Z,86.00
2018-03-14T02:25:09.968Z,86.20
2018-03-14T02:27:37.687Z,86.00
2018-03-14T02:30:04.994Z,86.10
2018-03-14T02:32:32.763Z,85.60
2018-03-14T02:35:00.082Z,85.70
2018-03-14T02:37:27.391Z,85.40
2018-03-14T02:39:54.697Z,85.80
2018-03-14T02:42:22.008Z,85.90
2018-03-14T02:44:49.289Z,85.80
2018-03-14T02:47:16.645Z,85.60
2018-03-14T02:49:43.920Z,85.70
2018-03-14T02:52:11.189Z,85.50
2018-03-14T02:54:38.466Z,85.60
2018-03-14T02:57:06.144Z,85.30
2018-03-14T02:59:33.470Z,85.50
2018-03-14T03:02:01.151Z,85.50
2018-03-14T03:04:28.428Z,85.70
2018-03-14T03:06:55.745Z,85.70
2018-03-14T03:09:23.454Z,85.50
2018-03-14T03:11:50.743Z,85.40
2018-03-14T03:14:18.086Z,85.70
2018-03-14T03:16:45.364Z,85.70
2018-03-14T03:19:13.073Z,85.50
2018-03-14T03:21:40.370Z,85.60
2018-03-14T03:24:07.767Z,85.60
2018-03-14T03:26:35.060Z,85.70
2018-03-14T03:29:02.385Z,85.80
2018-03-14T03:31:29.711Z,85.80
2018-03-14T03:33:57.142Z,85.40
2018-03-14T03:36:24.450Z,85.50
2018-03-14T03:38:51.807Z,85.50
2018-03-14T03:41:19.213Z,85.70
2018-03-14T03:43:46.565Z,85.40
2018-03-14T03:46:13.903Z,85.70
2018-03-14T03:48:41.226Z,85.50
2018-03-14T03:51:08.544Z,85.60
2018-03-14T03:53:36.225Z,85.50
2018-03-14T03:56:03.750Z,85.40
2018-03-14T03:58:31.093Z,85.20
2018-03-14T04:00:58.480Z,85.20
2018-03-14T04:03:26.224Z,85.00
2018-03-14T04:05:53.605Z,85.00
2018-03-14T04:08:21.415Z,85.40
2018-03-14T04:10:48.725Z,85.10
2018-03-14T04:13:16.005Z,85.10
2018-03-14T04:15:44.282Z,85.10
2018-03-14T04:18:11.614Z,85.20
2018-03-14T04:20:38.978Z,85.00
2018-03-14T04:23:06.332Z,84.80
2018-03-14T04:25:33.653Z,85.00
2018-03-14T04:28:01.012Z,84.90
2018-03-14T04:30:28.755Z,84.80
2018-03-14T04:32:56.053Z,84.80
2018-03-14T04:35:23.777Z,84.70
2018-03-14T04:37:51.206Z,84.80
2018-03-14T04:40:18.566Z,84.60
2018-03-14T04:42:45.925Z,84.50
2018-03-14T04:45:13.236Z,84.70
2018-03-14T04:47:40.633Z,84.80
2018-03-14T04:50:07.986Z,84.70
2018-03-14T04:52:35.312Z,84.70
2018-03-14T04:55:02.644Z,84.90
2018-03-14T04:57:30.375Z,84.70
2018-03-14T04:59:57.733Z,84.70
2018-03-14T05:02:25.083Z,84.50
2018-03-14T05:04:52.403Z,84.70
2018-03-14T05:07:19.761Z,84.60
2018-03-14T05:09:47.139Z,84.50
2018-03-14T05:12:14.473Z,84.60
2018-03-14T05:14:41.832Z,84.60
2018-03-14T05:17:09.178Z,83.90
2018-03-14T05:19:36.527Z,84.50
2018-03-14T05:22:03.932Z,84.60
2018-03-14T05:24:31.246Z,84.90
2018-03-14T05:26:58.642Z,84.70
2018-03-14T05:29:25.970Z,84.40
2018-03-14T05:31:53.319Z,84.20
2018-03-14T05:34:20.691Z,84.30
2018-03-14T05:36:48.041Z,84.50
2018-03-14T05:39:23.190Z,84.10
2018-03-14T05:41:50.518Z,84.30
2018-03-14T05:44:17.856Z,85.00
2018-03-14T05:46:45.191Z,84.80
2018-03-14T05:49:12.912Z,84.50
2018-03-14T05:51:40.287Z,84.30
2018-03-14T05:54:07.654Z,84.10
2018-03-14T05:56:34.954Z,84.30
2018-03-14T05:59:02.438Z,84.40
2018-03-14T06:01:29.763Z,84.40
2018-03-14T06:03:57.078Z,84.40
2018-03-14T06:06:24.419Z,84.40
2018-03-14T06:08:51.786Z,84.10
2018-03-14T06:11:19.097Z,84.00
2018-03-14T06:14:01.296Z,84.10
2018-03-14T06:16:28.694Z,84.00
2018-03-14T06:18:56.042Z,83.70
2018-03-14T06:21:23.814Z,83.70
2018-03-14T06:23:51.138Z,84.30
2018-03-14T06:26:18.492Z,84.10
2018-03-14T06:28:45.817Z,83.90
2018-03-14T06:31:13.123Z,84.10
2018-03-14T06:33:40.485Z,84.60
2018-03-14T06:36:07.789Z,84.90
2018-03-14T06:38:35.158Z,85.30
2018-03-14T06:41:02.555Z,84.90
2018-03-14T06:43:29.891Z,84.50
2018-03-14T06:45:57.211Z,84.70
2018-03-14T06:48:24.493Z,85.00
2018-03-14T06:50:51.891Z,85.40
2018-03-14T06:53:19.217Z,85.20
2018-03-14T06:55:46.650Z,84.80
2018-03-14T06:58:25.716Z,85.20
2018-03-14T07:01:04.920Z,85.00
2018-03-14T07:06:33.218Z,84.80
2018-03-14T07:09:00.495Z,85.30
2018-03-14T07:11:27.763Z,85.40
2018-03-14T07:13:55.497Z,85.00
2018-03-14T07:16:22.767Z,85.30
2018-03-14T07:18:50.099Z,85.20
2018-03-14T07:21:17.371Z,85.00
2018-03-14T07:23:44.767Z,85.30
2018-03-14T07:26:12.066Z,85.20
2018-03-14T07:28:39.392Z,85.00
2018-03-14T07:31:06.779Z,84.80
2018-03-14T07:33:34.223Z,84.90
2018-03-14T07:36:01.568Z,84.60
2018-03-14T07:38:28.904Z,84.80
2018-03-14T07:40:56.239Z,85.00
2018-03-14T07:43:23.949Z,84.50
2018-03-14T07:45:51.246Z,84.60
2018-03-14T07:48:18.822Z,84.70
2018-03-14T07:50:46.166Z,84.40
2018-03-14T07:53:13.931Z,84.30
2018-03-14T07:55:41.310Z,84.40
2018-03-14T07:58:08.641Z,84.30
2018-03-14T08:00:36.384Z,84.30
2018-03-14T08:03:03.730Z,84.30
2018-03-14T08:05:31.044Z,83.40
2018-03-14T08:07:58.363Z,84.30
2018-03-14T08:10:25.672Z,84.10
2018-03-14T08:12:53.003Z,84.00
2018-03-14T08:15:20.287Z,83.80
2018-03-14T08:17:47.740Z,83.90
2018-03-14T08:20:15.025Z,84.00
2018-03-14T08:22:42.283Z,83.60
2018-03-14T08:25:09.597Z,83.60
2018-03-14T08:27:36.887Z,83.80
2018-03-14T08:30:04.213Z,83.70
2018-03-14T08:32:31.523Z,82.70
2018-03-14T08:34:58.942Z,83.70
2018-03-14T08:37:26.227Z,83.50
2018-03-14T08:39:53.995Z,83.40
2018-03-14T08:42:21.335Z,83.60
2018-03-14T08:44:49.050Z,83.40
2018-03-14T08:47:16.440Z,83.20
2018-03-14T08:49:43.782Z,83.30
2018-03-14T08:52:11.118Z,82.90
2018-03-14T08:54:38.478Z,82.90
2018-03-14T08:57:05.862Z,82.80
2018-03-14T08:59:33.194Z,82.80
2018-03-14T09:02:00.479Z,83.00
2018-03-14T09:04:28.231Z,82.70
2018-03-14T09:06:55.538Z,82.50
2018-03-14T09:09:22.845Z,82.30
2018-03-14T09:11:50.585Z,81.90
2018-03-14T09:14:17.922Z,82.40
2018-03-14T09:16:45.266Z,82.10
2018-03-14T09:19:12.749Z,81.10
2018-03-14T09:21:40.165Z,81.90
2018-03-14T09:24:07.819Z,81.60
2018-03-14T09:26:35.558Z,81.10
2018-03-14T09:29:02.902Z,81.20
2018-03-14T09:31:30.245Z,80.90
2018-03-14T09:33:57.616Z,81.20
2018-03-14T09:36:24.950Z,80.90
2018-03-14T09:38:52.304Z,79.10
2018-03-14T09:41:19.690Z,79.00
2018-03-14T09:43:47.431Z,80.30
2018-03-14T09:46:14.727Z,80.30
2018-03-14T09:48:42.443Z,80.00
2018-03-14T09:51:09.803Z,79.30
2018-03-14T09:53:37.126Z,79.60
2018-03-14T09:56:05.420Z,79.60
2018-03-14T09:58:32.748Z,78.80
2018-03-14T10:01:00.056Z,79.00
2018-03-14T10:03:27.451Z,79.30
2018-03-14T10:05:54.775Z,78.40
2018-03-14T10:08:22.042Z,78.70
2018-03-14T10:10:49.733Z,79.20
2018-03-14T10:13:17.064Z,79.50
2018-03-14T10:15:44.777Z,78.80
2018-03-14T10:18:12.098Z,79.50
2018-03-14T10:20:39.752Z,78.00
2018-03-14T10:23:07.469Z,78.60
2018-03-14T10:25:34.854Z,78.60
2018-03-14T10:28:02.146Z,79.20
2018-03-14T10:30:29.416Z,78.60
2018-03-14T10:32:56.715Z,78.50
2018-03-14T10:35:23.989Z,78.30
2018-03-14T10:37:51.697Z,77.00
2018-03-14T10:40:19.010Z,77.10
2018-03-14T10:42:46.307Z,76.40
2018-03-14T10:45:13.689Z,77.30
2018-03-14T10:47:41.061Z,76.90
2018-03-14T10:50:08.770Z,77.10
2018-03-14T10:52:36.095Z,75.60
2018-03-14T10:55:03.512Z,74.40
2018-03-14T10:57:30.852Z,74.60
2018-03-14T10:59:58.199Z,75.50
2018-03-14T11:02:30.483Z,76.60
2018-03-14T11:04:57.799Z,76.30
2018-03-14T11:07:25.162Z,77.00
2018-03-14T11:09:52.498Z,76.40
2018-03-14T11:12:19.842Z,75.50
2018-03-14T11:14:47.586Z,76.40
2018-03-14T11:17:14.902Z,75.70
2018-03-14T11:19:42.231Z,75.20
2018-03-14T11:22:09.615Z,75.60
2018-03-14T11:24:36.956Z,75.30
2018-03-14T11:27:04.290Z,75.80
2018-03-14T11:29:31.658Z,75.60
2018-03-14T11:31:58.942Z,75.80
2018-03-14T11:34:26.258Z,74.80
2018-03-14T11:36:53.588Z,75.10
2018-03-14T11:39:21.280Z,74.80
2018-03-14T11:41:48.727Z,74.50
2018-03-14T11:44:16.078Z,74.60
2018-03-14T11:46:43.754Z,74.00
2018-03-14T11:49:11.059Z,73.40
2018-03-14T11:51:38.381Z,74.00
2018-03-14T11:54:05.694Z,74.20
2018-03-14T11:56:33.426Z,74.40
2018-03-14T11:59:00.798Z,73.70
2018-03-14T12:01:28.521Z,73.90
2018-03-14T12:03:55.831Z,72.60
2018-03-14T12:06:23.538Z,72.80
2018-03-14T12:08:50.907Z,72.70
2018-03-14T12:11:18.250Z,72.50
2018-03-14T12:13:45.569Z,73.30
2018-03-14T12:16:12.932Z,74.00
2018-03-14T12:18:40.244Z,74.20
2018-03-14T12:21:07.740Z,73.50
2018-03-14T12:23:35.049Z,73.70
2018-03-14T12:26:02.393Z,73.30
2018-03-14T12:28:29.776Z,73.00
2018-03-14T12:30:57.499Z,72.70
2018-03-14T12:33:24.873Z,73.10
2018-03-14T12:35:52.196Z,71.90
2018-03-14T12:38:19.515Z,72.20
2018-03-14T12:40:47.264Z,72.40
2018-03-14T12:43:15.006Z,72.80
2018-03-14T12:45:42.328Z,73.20
2018-03-14T12:48:09.675Z,72.70
2018-03-14T12:50:36.976Z,72.50
2018-03-14T12:53:04.342Z,72.20
2018-03-14T12:55:31.646Z,71.30
2018-03-14T12:57:58.941Z,71.60
2018-03-14T13:00:26.221Z,72.00
2018-03-14T13:02:53.928Z,71.60
2018-03-14T13:05:21.269Z,72.10
2018-03-14T13:07:48.521Z,71.80
2018-03-14T13:10:15.841Z,71.40
2018-03-14T13:12:43.116Z,70.30
2018-03-14T13:15:10.460Z,70.00
2018-03-14T13:17:38.153Z,69.90
2018-03-14T13:20:05.463Z,69.60
2018-03-14T13:22:32.770Z,70.60
2018-03-14T13:25:00.045Z,70.10
2018-03-14T13:27:27.401Z,70.20
2018-03-14T13:29:54.726Z,69.20
2018-03-14T13:32:22.046Z,70.40
2018-03-14T13:34:49.424Z,70.70
2018-03-14T13:37:16.729Z,71.30
2018-03-14T13:39:44.191Z,71.20
2018-03-14T13:42:11.491Z,71.10
2018-03-14T13:44:38.867Z,71.30
2018-03-14T13:47:06.225Z,70.70
2018-03-14T13:49:33.611Z,70.70
2018-03-14T13:52:00.984Z,70.30
2018-03-14T13:54:28.716Z,71.70
2018-03-14T13:56:56.063Z,71.00
2018-03-14T13:59:23.424Z,71.60
2018-03-14T14:01:50.787Z,71.70
2018-03-14T14:04:18.139Z,71.00
2018-03-14T14:06:45.546Z,71.20
2018-03-14T14:09:12.881Z,70.70
2018-03-14T14:11:40.556Z,70.90
2018-03-14T14:14:08.405Z,70.80
2018-03-14T14:16:36.134Z,70.40
2018-03-14T14:19:03.481Z,70.60
2018-03-14T14:21:30.882Z,70.70
2018-03-14T14:23:58.636Z,68.70
2018-03-14T14:26:25.973Z,69.00
2018-03-14T14:28:53.293Z,69.40
2018-03-14T14:31:20.687Z,69.60
2018-03-14T14:33:47.996Z,70.00
2018-03-14T14:36:15.331Z,69.90
2018-03-14T14:38:43.091Z,69.90
2018-03-14T14:41:10.861Z,69.50
2018-03-14T14:43:38.197Z,69.80
2018-03-14T14:46:05.491Z,70.20
2018-03-14T14:48:32.854Z,70.30
2018-03-14T14:51:00.236Z,69.70
2018-03-14T14:53:27.579Z,69.60
2018-03-14T14:55:54.888Z,69.80
2018-03-14T14:58:22.627Z,70.40
2018-03-14T15:00:49.943Z,70.50
2018-03-14T15:03:17.277Z,69.90
2018-03-14T15:05:44.653Z,69.80
2018-03-14T15:08:11.954Z,69.40
2018-03-14T15:10:39.307Z,69.50
2018-03-14T15:13:06.634Z,70.00
2018-03-14T15:15:39.897Z,70.30
2018-03-14T15:18:07.216Z,70.20
2018-03-14T15:20:34.958Z,69.80
2018-03-14T15:23:02.421Z,69.70
2018-03-14T15:25:29.773Z,70.10
2018-03-14T15:27:57.141Z,69.60
2018-03-14T15:30:24.483Z,69.50
2018-03-14T15:32:51.818Z,69.30
2018-03-14T15:35:19.144Z,69.40
2018-03-14T15:37:46.495Z,70.20
2018-03-14T15:40:13.835Z,70.50
2018-03-14T15:42:41.149Z,70.00
2018-03-14T15:45:08.518Z,70.10
2018-03-14T15:47:35.827Z,70.10
2018-03-14T15:50:03.127Z,69.50
2018-03-14T15:52:30.419Z,70.20
2018-03-14T15:54:57.755Z,69.60
2018-03-14T15:57:25.612Z,69.30
2018-03-14T15:59:52.974Z,70.10
2018-03-14T16:02:20.646Z,69.50
2018-03-14T16:04:48.332Z,70.10
2018-03-14T16:07:15.621Z,69.90
2018-03-14T16:09:42.926Z,69.70
2018-03-14T16:12:10.205Z,70.40
2018-03-14T16:14:37.482Z,69.60
2018-03-14T16:17:04.771Z,70.50
2018-03-14T16:19:32.453Z,69.70
2018-03-14T16:21:59.745Z,70.70
2018-03-14T16:24:27.012Z,69.90
2018-03-14T16:26:54.486Z,69.90
2018-03-14T16:29:21.754Z,70.30
2018-03-14T16:31:49.419Z,70.80
2018-03-14T16:34:17.122Z,70.50
2018-03-14T16:36:44.384Z,69.80
2018-03-14T16:39:11.714Z,70.50
2018-03-14T16:41:39.020Z,70.00
2018-03-14T16:44:11.096Z,70.00
2018-03-14T16:46:38.425Z,70.70
2018-03-14T16:49:05.704Z,69.90
2018-03-14T16:51:33.383Z,71.00
2018-03-14T16:54:01.050Z,71.20
2018-03-14T16:56:28.778Z,70.60
2018-03-14T16:58:56.054Z,72.30
2018-03-14T17:01:23.734Z,71.20
2018-03-14T17:03:51.046Z,71.30
2018-03-14T17:06:18.342Z,71.00
2018-03-14T17:08:45.664Z,72.30
2018-03-14T17:11:12.985Z,70.90
2018-03-14T17:13:40.301Z,71.50
2018-03-14T17:16:08.015Z,71.10
2018-03-14T17:18:37.354Z,71.60
2018-03-14T17:21:05.145Z,72.70
2018-03-14T17:23:32.826Z,72.70
2018-03-14T17:26:00.944Z,72.90
2018-03-14T17:28:28.266Z,72.20
2018-03-14T17:30:55.616Z,72.70
2018-03-14T17:33:22.979Z,73.20
2018-03-14T17:35:50.302Z,72.40
2018-03-14T17:38:17.644Z,73.00
2018-03-14T17:40:45.073Z,73.80
2018-03-14T17:43:12.416Z,73.30
2018-03-14T17:45:39.735Z,73.70
2018-03-14T17:48:07.126Z,72.70
2018-03-14T17:50:34.461Z,73.50
2018-03-14T17:53:01.772Z,73.70
2018-03-14T17:55:29.126Z,73.60
2018-03-14T17:57:56.839Z,73.90
2018-03-14T18:00:24.128Z,73.20
2018-03-14T18:03:02.548Z,73.00
2018-03-14T18:05:30.291Z,72.10
2018-03-14T18:07:59.615Z,73.40
2018-03-14T18:10:27.345Z,73.10
2018-03-14T18:13:02.138Z,73.20
2018-03-14T18:15:36.139Z,73.30
2018-03-14T18:18:06.538Z,72.20
2018-03-14T18:20:34.211Z,72.90
2018-03-14T18:23:02.002Z,72.50
2018-03-14T18:25:29.310Z,74.20
2018-03-14T18:27:56.635Z,73.40
2018-03-14T18:30:25.046Z,73.40
2018-03-14T18:32:52.412Z,74.50
2018-03-14T18:35:20.134Z,71.90
2018-03-14T18:37:47.530Z,73.00
2018-03-14T18:40:15.289Z,72.40
2018-03-14T18:42:43.002Z,73.50
2018-03-14T18:45:10.354Z,72.30
2018-03-14T18:47:41.645Z,72.90
2018-03-14T18:50:09.403Z,73.60
2018-03-14T18:52:45.296Z,73.50
2018-03-14T18:55:12.643Z,73.60
2018-03-14T18:58:00.498Z,71.70
2018-03-14T19:00:27.848Z,72.70
2018-03-14T19:02:55.152Z,73.00
2018-03-14T19:05:22.471Z,72.80
2018-03-14T19:07:49.790Z,74.30
2018-03-14T19:10:17.586Z,74.60
2018-03-14T19:12:46.905Z,74.30
2018-03-14T19:21:12.201Z,74.00
2018-03-14T19:23:39.533Z,75.00
2018-03-14T19:26:06.891Z,74.00
2018-03-14T19:28:34.238Z,73.70
2018-03-14T19:31:08.695Z,74.30
2018-03-14T19:33:46.908Z,73.60
2018-03-14T19:36:25.773Z,74.60
2018-03-14T19:38:57.217Z,74.40
2018-03-14T19:41:24.480Z,74.20
2018-03-14T19:43:51.832Z,74.40
2018-03-14T19:46:19.190Z,75.20
2018-03-14T19:48:46.527Z,74.90
2018-03-14T19:51:13.850Z,74.90
2018-03-14T19:53:41.211Z,74.20
2018-03-14T19:56:08.965Z,74.20
2018-03-14T19:58:36.817Z,75.00
2018-03-14T20:01:04.261Z,75.40
2018-03-14T20:03:36.402Z,75.10
2018-03-14T20:06:03.758Z,75.00
2018-03-14T20:08:31.106Z,74.10
2018-03-14T20:10:59.302Z,75.30
2018-03-14T20:13:26.562Z,75.20
2018-03-14T20:16:01.774Z,73.70
2018-03-14T20:18:29.075Z,74.90
2018-03-14T20:21:03.206Z,73.80
2018-03-14T20:23:30.524Z,74.60
2018-03-14T20:26:00.312Z,75.40
2018-03-14T20:28:27.697Z,76.00
2018-03-14T20:30:55.037Z,75.00
2018-03-14T20:33:22.361Z,74.60
2018-03-14T20:35:59.929Z,74.80
2018-03-14T20:38:27.740Z,75.10
2018-03-14T20:40:55.102Z,73.30
2018-03-14T20:43:22.499Z,74.50
2018-03-14T20:45:49.812Z,75.10
2018-03-14T20:48:17.209Z,74.90
2018-03-14T20:50:45.014Z,75.00
2018-03-14T20:53:12.344Z,74.70
2018-03-14T20:55:39.686Z,74.50
2018-03-14T20:58:07.460Z,74.90
2018-03-14T21:00:35.153Z,75.20
2018-03-14T21:03:02.466Z,74.90
2018-03-14T21:05:29.738Z,75.10
2018-03-14T21:07:57.445Z,74.50
2018-03-14T21:10:44.002Z,75.70
2018-03-14T21:13:11.683Z,75.70
2018-03-14T21:15:39.035Z,76.00
2018-03-14T21:18:06.408Z,74.80
2018-03-14T21:20:37.782Z,75.00
2018-03-14T21:23:05.456Z,75.70
2018-03-14T21:25:32.823Z,76.00
2018-03-14T21:28:00.322Z,75.80
2018-03-14T21:30:27.657Z,75.00
2018-03-14T21:32:55.430Z,75.60
2018-03-14T21:35:22.867Z,75.00
2018-03-14T21:37:50.326Z,76.50
2018-03-14T21:40:18.166Z,76.40
2018-03-14T21:42:45.483Z,75.00
2018-03-14T21:45:16.580Z,76.40
2018-03-14T21:47:43.918Z,76.40
2018-03-14T21:50:11.304Z,74.90
2018-03-14T21:52:38.667Z,75.60
2018-03-14T21:55:23.380Z,76.90
2018-03-14T21:57:50.772Z,76.40
2018-03-14T22:00:18.598Z,76.80
2018-03-14T22:02:45.971Z,76.50
2018-03-14T22:05:31.153Z,75.90
2018-03-14T22:07:58.504Z,77.00
2018-03-14T22:10:25.967Z,75.30
2018-03-14T22:12:53.294Z,76.60
2018-03-14T22:15:20.667Z,77.80
2018-03-14T22:17:47.994Z,76.60
2018-03-14T22:20:15.340Z,75.60
2018-03-14T22:22:42.729Z,76.60
2018-03-14T22:25:10.095Z,77.50
2018-03-14T22:27:37.479Z,75.90
2018-03-14T22:30:05.504Z,76.00
2018-03-14T22:32:32.828Z,77.00
2018-03-14T22:35:00.448Z,77.20
2018-03-14T22:37:28.242Z,77.90
2018-03-14T22:39:55.519Z,77.30
2018-03-14T22:42:23.023Z,77.50
2018-03-14T22:44:50.337Z,75.80
2018-03-14T22:47:17.693Z,77.60
2018-03-14T22:49:45.046Z,77.60
2018-03-14T22:52:12.453Z,78.00
2018-03-14T22:54:40.304Z,78.50
2018-03-14T22:57:08.166Z,78.50
2018-03-14T22:59:35.510Z,78.30
2018-03-14T23:02:02.936Z,77.80
2018-03-14T23:04:30.298Z,78.60
2018-03-14T23:06:57.638Z,78.10
2018-03-14T23:09:24.950Z,78.30
2018-03-14T23:11:52.338Z,78.20
2018-03-14T23:14:19.749Z,77.80
2018-03-14T23:16:47.186Z,78.20
2018-03-14T23:19:14.490Z,78.30
2018-03-14T23:21:42.286Z,78.50
2018-03-14T23:24:09.694Z,78.60
2018-03-14T23:26:37.059Z,78.40
2018-03-14T23:29:04.634Z,78.70
2018-03-14T23:31:31.935Z,78.80
2018-03-14T23:34:05.199Z,78.80
2018-03-14T23:36:32.523Z,78.70
2018-03-14T23:39:04.666Z,78.70
2018-03-14T23:41:32.017Z,78.00
2018-03-14T23:43:59.318Z,79.00
2018-03-14T23:46:26.700Z,78.60
2018-03-14T23:48:54.016Z,78.20
2018-03-14T23:51:21.821Z,78.50
2018-03-14T23:53:49.142Z,79.20
2018-03-14T23:56:16.499Z,78.70
2018-03-14T23:58:43.890Z,78.10
